sensor_id;sensor_type;location;lat;lon;timestamp;temperature;humidity
68719;DHT22;55696;52.138;5.444;2023-07-31T00:01:46;19.30;69.40
68719;DHT22;55696;52.138;5.444;2023-07-31T00:04:12;19.40;69.30
68719;DHT22;55696;52.138;5.444;2023-07-31T00:06:39;19.20;69.20
68719;DHT22;55696;52.138;5.444;2023-07-31T00:09:07;19.30;69.30
68719;DHT22;55696;52.138;5.444;2023-07-31T00:11:34;19.50;69.50
68719;DHT22;55696;52.138;5.444;2023-07-31T00:14:01;19.40;69.40
68719;DHT22;55696;52.138;5.444;2023-07-31T00:16:27;19.40;69.50
68719;DHT22;55696;52.138;5.444;2023-07-31T00:18:54;19.30;69.70
68719;DHT22;55696;52.138;5.444;2023-07-31T00:21:21;19.30;69.90
68719;DHT22;55696;52.138;5.444;2023-07-31T00:23:48;19.40;70.10
68719;DHT22;55696;52.138;5.444;2023-07-31T00:26:15;19.40;71.00
68719;DHT22;55696;52.138;5.444;2023-07-31T00:28:42;19.30;70.00
68719;DHT22;55696;52.138;5.444;2023-07-31T00:31:09;19.50;71.10
68719;DHT22;55696;52.138;5.444;2023-07-31T00:33:37;19.50;70.00
68719;DHT22;55696;52.138;5.444;2023-07-31T00:36:04;19.40;70.00
68719;DHT22;55696;52.138;5.444;2023-07-31T00:38:31;19.50;70.00
68719;DHT22;55696;52.138;5.444;2023-07-31T00:40:58;19.60;70.10
68719;DHT22;55696;52.138;5.444;2023-07-31T00:43:25;19.60;70.00
68719;DHT22;55696;52.138;5.444;2023-07-31T00:45:52;19.70;70.10
68719;DHT22;55696;52.138;5.444;2023-07-31T00:48:19;19.60;70.00
68719;DHT22;55696;52.138;5.444;2023-07-31T00:50:46;19.70;70.30
68719;DHT22;55696;52.138;5.444;2023-07-31T00:53:14;19.70;70.40
68719;DHT22;55696;52.138;5.444;2023-07-31T00:55:42;19.70;70.50
68719;DHT22;55696;52.138;5.444;2023-07-31T00:58:09;19.70;71.00
68719;DHT22;55696;52.138;5.444;2023-07-31T01:00:38;19.70;71.10
68719;DHT22;55696;52.138;5.444;2023-07-31T01:03:05;19.50;71.30
68719;DHT22;55696;52.138;5.444;2023-07-31T01:08:18;19.80;71.80
68719;DHT22;55696;52.138;5.444;2023-07-31T01:10:56;19.90;72.10
68719;DHT22;55696;52.138;5.444;2023-07-31T01:13:24;20.40;72.50
68719;DHT22;55696;52.138;5.444;2023-07-31T01:15:51;19.90;72.00
68719;DHT22;55696;52.138;5.444;2023-07-31T01:18:18;20.00;72.10
68719;DHT22;55696;52.138;5.444;2023-07-31T01:20:52;19.80;72.00
68719;DHT22;55696;52.138;5.444;2023-07-31T01:23:48;19.90;72.30
68719;DHT22;55696;52.138;5.444;2023-07-31T01:26:28;20.00;72.60
68719;DHT22;55696;52.138;5.444;2023-07-31T01:29:17;19.90;72.10
68719;DHT22;55696;52.138;5.444;2023-07-31T01:31:48;19.90;72.00
68719;DHT22;55696;52.138;5.444;2023-07-31T01:34:17;19.90;71.80
68719;DHT22;55696;52.138;5.444;2023-07-31T01:36:45;19.70;71.80
68719;DHT22;55696;52.138;5.444;2023-07-31T01:39:11;19.90;71.80
68719;DHT22;55696;52.138;5.444;2023-07-31T01:41:38;19.80;71.70
68719;DHT22;55696;52.138;5.444;2023-07-31T01:44:05;19.80;71.80
68719;DHT22;55696;52.138;5.444;2023-07-31T01:46:32;19.90;71.90
68719;DHT22;55696;52.138;5.444;2023-07-31T01:48:59;20.00;71.80
68719;DHT22;55696;52.138;5.444;2023-07-31T01:51:26;20.00;71.80
68719;DHT22;55696;52.138;5.444;2023-07-31T01:53:53;20.00;71.80
68719;DHT22;55696;52.138;5.444;2023-07-31T01:56:20;19.90;71.70
68719;DHT22;55696;52.138;5.444;2023-07-31T01:58:46;20.00;71.70
68719;DHT22;55696;52.138;5.444;2023-07-31T02:01:13;20.00;71.70
68719;DHT22;55696;52.138;5.444;2023-07-31T02:03:40;19.80;71.60
68719;DHT22;55696;52.138;5.444;2023-07-31T02:06:09;20.00;71.80
68719;DHT22;55696;52.138;5.444;2023-07-31T02:08:35;20.00;72.00
68719;DHT22;55696;52.138;5.444;2023-07-31T02:11:03;19.90;72.10
68719;DHT22;55696;52.138;5.444;2023-07-31T02:13:30;19.80;72.30
68719;DHT22;55696;52.138;5.444;2023-07-31T02:15:57;19.90;72.30
68719;DHT22;55696;52.138;5.444;2023-07-31T02:18:25;19.70;72.30
68719;DHT22;55696;52.138;5.444;2023-07-31T02:20:52;19.90;72.40
68719;DHT22;55696;52.138;5.444;2023-07-31T02:23:19;19.90;73.30
68719;DHT22;55696;52.138;5.444;2023-07-31T02:25:46;19.90;72.20
68719;DHT22;55696;52.138;5.444;2023-07-31T02:28:14;19.90;72.20
68719;DHT22;55696;52.138;5.444;2023-07-31T02:30:44;19.80;72.20
68719;DHT22;55696;52.138;5.444;2023-07-31T02:33:11;19.80;72.40
68719;DHT22;55696;52.138;5.444;2023-07-31T02:35:38;19.80;72.20
68719;DHT22;55696;52.138;5.444;2023-07-31T02:38:05;20.10;72.50
68719;DHT22;55696;52.138;5.444;2023-07-31T02:40:32;19.90;72.40
68719;DHT22;55696;52.138;5.444;2023-07-31T02:42:58;19.80;72.30
68719;DHT22;55696;52.138;5.444;2023-07-31T02:45:25;20.00;72.30
68719;DHT22;55696;52.138;5.444;2023-07-31T02:47:52;20.00;72.10
68719;DHT22;55696;52.138;5.444;2023-07-31T02:50:20;20.00;72.00
68719;DHT22;55696;52.138;5.444;2023-07-31T02:52:47;19.90;71.90
68719;DHT22;55696;52.138;5.444;2023-07-31T02:55:14;19.80;71.90
68719;DHT22;55696;52.138;5.444;2023-07-31T02:57:41;20.00;72.20
68719;DHT22;55696;52.138;5.444;2023-07-31T03:00:08;20.00;72.00
68719;DHT22;55696;52.138;5.444;2023-07-31T03:02:36;20.00;72.00
68719;DHT22;55696;52.138;5.444;2023-07-31T03:05:03;19.90;71.80
68719;DHT22;55696;52.138;5.444;2023-07-31T03:07:30;20.00;71.70
68719;DHT22;55696;52.138;5.444;2023-07-31T03:09:57;19.90;71.70
68719;DHT22;55696;52.138;5.444;2023-07-31T03:12:24;20.00;71.70
68719;DHT22;55696;52.138;5.444;2023-07-31T03:14:51;20.00;71.60
68719;DHT22;55696;52.138;5.444;2023-07-31T03:17:18;20.10;71.60
68719;DHT22;55696;52.138;5.444;2023-07-31T03:19:44;20.10;71.60
68719;DHT22;55696;52.138;5.444;2023-07-31T03:22:11;20.10;71.50
68719;DHT22;55696;52.138;5.444;2023-07-31T03:24:38;20.00;71.50
68719;DHT22;55696;52.138;5.444;2023-07-31T03:27:05;20.00;71.50
68719;DHT22;55696;52.138;5.444;2023-07-31T03:29:32;20.00;71.50
68719;DHT22;55696;52.138;5.444;2023-07-31T03:31:59;20.10;71.50
68719;DHT22;55696;52.138;5.444;2023-07-31T03:34:27;20.10;71.40
68719;DHT22;55696;52.138;5.444;2023-07-31T03:36:53;20.10;71.40
68719;DHT22;55696;52.138;5.444;2023-07-31T03:39:20;20.00;71.30
68719;DHT22;55696;52.138;5.444;2023-07-31T03:41:48;19.80;71.20
68719;DHT22;55696;52.138;5.444;2023-07-31T03:44:17;20.30;71.40
68719;DHT22;55696;52.138;5.444;2023-07-31T03:46:43;20.00;71.20
68719;DHT22;55696;52.138;5.444;2023-07-31T03:49:10;20.00;71.20
68719;DHT22;55696;52.138;5.444;2023-07-31T03:51:37;20.00;71.10
68719;DHT22;55696;52.138;5.444;2023-07-31T03:54:04;20.00;71.10
68719;DHT22;55696;52.138;5.444;2023-07-31T03:56:31;20.00;71.00
68719;DHT22;55696;52.138;5.444;2023-07-31T03:59:01;20.00;70.90
68719;DHT22;55696;52.138;5.444;2023-07-31T04:01:28;20.00;70.90
68719;DHT22;55696;52.138;5.444;2023-07-31T04:03:55;20.00;70.90
68719;DHT22;55696;52.138;5.444;2023-07-31T04:06:22;20.00;70.90
68719;DHT22;55696;52.138;5.444;2023-07-31T04:08:49;19.90;70.90
68719;DHT22;55696;52.138;5.444;2023-07-31T04:11:15;19.60;70.60
68719;DHT22;55696;52.138;5.444;2023-07-31T04:13:42;20.00;70.70
68719;DHT22;55696;52.138;5.444;2023-07-31T04:16:09;19.90;70.70
68719;DHT22;55696;52.138;5.444;2023-07-31T04:18:37;20.00;70.80
68719;DHT22;55696;52.138;5.444;2023-07-31T04:21:04;19.80;70.60
68719;DHT22;55696;52.138;5.444;2023-07-31T04:23:30;19.80;70.60
68719;DHT22;55696;52.138;5.444;2023-07-31T04:25:57;19.80;70.70
68719;DHT22;55696;52.138;5.444;2023-07-31T04:28:24;19.80;70.60
68719;DHT22;55696;52.138;5.444;2023-07-31T04:30:52;19.60;70.50
68719;DHT22;55696;52.138;5.444;2023-07-31T04:33:20;19.70;70.50
68719;DHT22;55696;52.138;5.444;2023-07-31T04:35:51;19.70;70.40
68719;DHT22;55696;52.138;5.444;2023-07-31T04:38:22;20.20;70.80
68719;DHT22;55696;52.138;5.444;2023-07-31T04:40:49;19.80;70.40
68719;DHT22;55696;52.138;5.444;2023-07-31T04:43:16;19.80;70.30
68719;DHT22;55696;52.138;5.444;2023-07-31T04:45:45;19.90;70.30
68719;DHT22;55696;52.138;5.444;2023-07-31T04:48:14;19.90;70.40
68719;DHT22;55696;52.138;5.444;2023-07-31T04:50:41;19.80;70.20
68719;DHT22;55696;52.138;5.444;2023-07-31T04:53:08;19.80;70.30
68719;DHT22;55696;52.138;5.444;2023-07-31T04:55:35;19.80;70.20
68719;DHT22;55696;52.138;5.444;2023-07-31T04:58:02;19.80;70.20
68719;DHT22;55696;52.138;5.444;2023-07-31T05:00:28;19.80;70.30
68719;DHT22;55696;52.138;5.444;2023-07-31T05:02:55;19.80;70.30
68719;DHT22;55696;52.138;5.444;2023-07-31T05:05:22;19.80;70.50
68719;DHT22;55696;52.138;5.444;2023-07-31T05:07:49;19.80;70.60
68719;DHT22;55696;52.138;5.444;2023-07-31T05:10:16;19.60;70.60
68719;DHT22;55696;52.138;5.444;2023-07-31T05:12:43;19.80;70.80
68719;DHT22;55696;52.138;5.444;2023-07-31T05:15:10;19.80;70.90
68719;DHT22;55696;52.138;5.444;2023-07-31T05:17:37;20.40;71.30
68719;DHT22;55696;52.138;5.444;2023-07-31T05:20:04;19.80;71.00
68719;DHT22;55696;52.138;5.444;2023-07-31T05:22:31;19.80;71.10
68719;DHT22;55696;52.138;5.444;2023-07-31T05:24:58;19.60;71.00
68719;DHT22;55696;52.138;5.444;2023-07-31T05:27:25;19.80;71.10
68719;DHT22;55696;52.138;5.444;2023-07-31T05:29:52;19.60;71.10
68719;DHT22;55696;52.138;5.444;2023-07-31T05:32:19;19.70;71.20
68719;DHT22;55696;52.138;5.444;2023-07-31T05:34:45;19.70;71.20
68719;DHT22;55696;52.138;5.444;2023-07-31T05:37:12;19.50;71.20
68719;DHT22;55696;52.138;5.444;2023-07-31T05:39:39;19.60;71.50
68719;DHT22;55696;52.138;5.444;2023-07-31T05:42:06;19.50;71.40
68719;DHT22;55696;52.138;5.444;2023-07-31T05:44:33;19.50;72.50
68719;DHT22;55696;52.138;5.444;2023-07-31T05:47:00;19.50;71.70
68719;DHT22;55696;52.138;5.444;2023-07-31T05:49:27;19.50;71.80
68719;DHT22;55696;52.138;5.444;2023-07-31T05:51:54;19.40;71.60
68719;DHT22;55696;52.138;5.444;2023-07-31T05:54:21;19.30;71.60
68719;DHT22;55696;52.138;5.444;2023-07-31T05:56:47;19.50;71.60
68719;DHT22;55696;52.138;5.444;2023-07-31T05:59:15;19.60;71.70
68719;DHT22;55696;52.138;5.444;2023-07-31T06:01:42;19.60;71.60
68719;DHT22;55696;52.138;5.444;2023-07-31T06:04:09;19.70;71.60
68719;DHT22;55696;52.138;5.444;2023-07-31T06:06:36;19.60;71.60
68719;DHT22;55696;52.138;5.444;2023-07-31T06:09:04;21.00;72.30
68719;DHT22;55696;52.138;5.444;2023-07-31T06:11:30;19.70;71.60
68719;DHT22;55696;52.138;5.444;2023-07-31T06:13:57;19.50;71.50
68719;DHT22;55696;52.138;5.444;2023-07-31T06:16:24;19.70;71.70
68719;DHT22;55696;52.138;5.444;2023-07-31T06:18:52;20.40;72.10
68719;DHT22;55696;52.138;5.444;2023-07-31T06:21:19;19.70;71.50
68719;DHT22;55696;52.138;5.444;2023-07-31T06:23:45;19.70;71.50
68719;DHT22;55696;52.138;5.444;2023-07-31T06:26:12;19.60;71.50
68719;DHT22;55696;52.138;5.444;2023-07-31T06:28:40;20.20;71.80
68719;DHT22;55696;52.138;5.444;2023-07-31T06:31:06;19.70;71.70
68719;DHT22;55696;52.138;5.444;2023-07-31T06:33:34;20.10;72.10
68719;DHT22;55696;52.138;5.444;2023-07-31T06:36:01;19.70;71.90
68719;DHT22;55696;52.138;5.444;2023-07-31T06:38:27;19.70;71.80
68719;DHT22;55696;52.138;5.444;2023-07-31T06:40:54;19.70;71.80
68719;DHT22;55696;52.138;5.444;2023-07-31T06:43:21;19.70;71.90
68719;DHT22;55696;52.138;5.444;2023-07-31T06:45:48;19.60;71.90
68719;DHT22;55696;52.138;5.444;2023-07-31T06:48:17;19.80;72.00
68719;DHT22;55696;52.138;5.444;2023-07-31T06:50:44;19.70;71.70
68719;DHT22;55696;52.138;5.444;2023-07-31T06:53:11;19.80;71.70
68719;DHT22;55696;52.138;5.444;2023-07-31T06:55:38;19.70;71.70
68719;DHT22;55696;52.138;5.444;2023-07-31T06:58:05;19.70;71.60
68719;DHT22;55696;52.138;5.444;2023-07-31T07:00:32;19.90;71.70
68719;DHT22;55696;52.138;5.444;2023-07-31T07:02:59;19.90;72.60
68719;DHT22;55696;52.138;5.444;2023-07-31T07:05:26;20.00;71.70
68719;DHT22;55696;52.138;5.444;2023-07-31T07:07:52;20.10;71.80
68719;DHT22;55696;52.138;5.444;2023-07-31T07:10:19;20.10;71.50
68719;DHT22;55696;52.138;5.444;2023-07-31T07:12:48;20.10;71.60
68719;DHT22;55696;52.138;5.444;2023-07-31T07:15:16;20.10;71.50
68719;DHT22;55696;52.138;5.444;2023-07-31T07:17:43;20.10;71.50
68719;DHT22;55696;52.138;5.444;2023-07-31T07:20:10;20.10;71.50
68719;DHT22;55696;52.138;5.444;2023-07-31T07:22:37;20.10;71.60
68719;DHT22;55696;52.138;5.444;2023-07-31T07:25:04;19.70;71.40
68719;DHT22;55696;52.138;5.444;2023-07-31T07:27:31;20.10;71.70
68719;DHT22;55696;52.138;5.444;2023-07-31T07:29:58;20.10;71.70
68719;DHT22;55696;52.138;5.444;2023-07-31T07:32:25;20.20;71.80
68719;DHT22;55696;52.138;5.444;2023-07-31T07:34:52;20.10;71.80
68719;DHT22;55696;52.138;5.444;2023-07-31T07:37:19;20.90;72.40
68719;DHT22;55696;52.138;5.444;2023-07-31T07:39:46;20.20;72.10
68719;DHT22;55696;52.138;5.444;2023-07-31T07:42:13;20.30;72.10
68719;DHT22;55696;52.138;5.444;2023-07-31T07:44:39;20.10;71.90
68719;DHT22;55696;52.138;5.444;2023-07-31T07:47:06;20.30;72.10
68719;DHT22;55696;52.138;5.444;2023-07-31T07:49:34;20.80;72.50
68719;DHT22;55696;52.138;5.444;2023-07-31T07:52:02;20.10;72.20
68719;DHT22;55696;52.138;5.444;2023-07-31T07:54:30;20.30;72.30
68719;DHT22;55696;52.138;5.444;2023-07-31T07:56:57;20.30;72.40
68719;DHT22;55696;52.138;5.444;2023-07-31T07:59:24;20.40;72.40
68719;DHT22;55696;52.138;5.444;2023-07-31T08:01:50;20.40;72.30
68719;DHT22;55696;52.138;5.444;2023-07-31T08:04:17;20.50;72.40
68719;DHT22;55696;52.138;5.444;2023-07-31T08:06:44;20.50;72.10
68719;DHT22;55696;52.138;5.444;2023-07-31T08:09:11;20.40;71.90
68719;DHT22;55696;52.138;5.444;2023-07-31T08:11:38;20.50;72.00
68719;DHT22;55696;52.138;5.444;2023-07-31T08:14:05;20.70;71.90
68719;DHT22;55696;52.138;5.444;2023-07-31T08:16:32;20.60;71.80
68719;DHT22;55696;52.138;5.444;2023-07-31T08:18:59;20.60;72.00
68719;DHT22;55696;52.138;5.444;2023-07-31T08:21:26;20.70;71.90
68719;DHT22;55696;52.138;5.444;2023-07-31T08:23:53;20.70;72.00
68719;DHT22;55696;52.138;5.444;2023-07-31T08:26:20;20.70;71.80
68719;DHT22;55696;52.138;5.444;2023-07-31T08:28:47;20.80;72.00
68719;DHT22;55696;52.138;5.444;2023-07-31T08:31:14;20.80;71.80
68719;DHT22;55696;52.138;5.444;2023-07-31T08:33:41;20.80;71.80
68719;DHT22;55696;52.138;5.444;2023-07-31T08:36:08;20.90;71.50
68719;DHT22;55696;52.138;5.444;2023-07-31T08:38:34;20.80;71.40
68719;DHT22;55696;52.138;5.444;2023-07-31T08:41:03;20.90;71.50
68719;DHT22;55696;52.138;5.444;2023-07-31T08:43:31;20.90;71.60
68719;DHT22;55696;52.138;5.444;2023-07-31T08:45:59;21.00;71.40
68719;DHT22;55696;52.138;5.444;2023-07-31T08:48:26;21.00;71.30
68719;DHT22;55696;52.138;5.444;2023-07-31T08:50:54;21.00;71.20
68719;DHT22;55696;52.138;5.444;2023-07-31T08:53:21;19.10;70.10
68719;DHT22;55696;52.138;5.444;2023-07-31T08:55:49;21.20;71.10
68719;DHT22;55696;52.138;5.444;2023-07-31T08:58:17;21.40;71.10
68719;DHT22;55696;52.138;5.444;2023-07-31T09:00:46;21.20;70.80
68719;DHT22;55696;52.138;5.444;2023-07-31T09:03:18;21.50;70.70
68719;DHT22;55696;52.138;5.444;2023-07-31T09:05:46;21.30;70.70
68719;DHT22;55696;52.138;5.444;2023-07-31T09:08:15;21.50;70.40
68719;DHT22;55696;52.138;5.444;2023-07-31T09:10:45;21.40;70.30
68719;DHT22;55696;52.138;5.444;2023-07-31T09:13:18;21.30;70.50
68719;DHT22;55696;52.138;5.444;2023-07-31T09:15:45;21.60;70.60
68719;DHT22;55696;52.138;5.444;2023-07-31T09:18:12;21.70;70.70
68719;DHT22;55696;52.138;5.444;2023-07-31T09:20:43;22.20;70.60
68719;DHT22;55696;52.138;5.444;2023-07-31T09:23:12;21.60;70.00
68719;DHT22;55696;52.138;5.444;2023-07-31T09:25:43;21.60;70.10
68719;DHT22;55696;52.138;5.444;2023-07-31T09:28:11;21.40;70.30
68719;DHT22;55696;52.138;5.444;2023-07-31T09:30:50;21.30;70.50
68719;DHT22;55696;52.138;5.444;2023-07-31T09:33:20;21.30;71.00
68719;DHT22;55696;52.138;5.444;2023-07-31T09:35:47;21.20;71.30
68719;DHT22;55696;52.138;5.444;2023-07-31T09:38:17;21.50;70.90
68719;DHT22;55696;52.138;5.444;2023-07-31T09:40:48;22.20;71.00
68719;DHT22;55696;52.138;5.444;2023-07-31T09:43:19;21.50;70.50
68719;DHT22;55696;52.138;5.444;2023-07-31T09:45:47;21.60;70.50
68719;DHT22;55696;52.138;5.444;2023-07-31T09:48:16;22.00;70.60
68719;DHT22;55696;52.138;5.444;2023-07-31T09:50:44;21.60;70.60
68719;DHT22;55696;52.138;5.444;2023-07-31T09:53:11;21.70;70.50
68719;DHT22;55696;52.138;5.444;2023-07-31T09:55:41;21.50;70.30
68719;DHT22;55696;52.138;5.444;2023-07-31T09:58:11;21.80;70.60
68719;DHT22;55696;52.138;5.444;2023-07-31T10:00:39;21.80;70.30
68719;DHT22;55696;52.138;5.444;2023-07-31T10:03:08;21.80;70.00
68719;DHT22;55696;52.138;5.444;2023-07-31T10:05:42;21.70;70.00
68719;DHT22;55696;52.138;5.444;2023-07-31T10:08:10;21.80;70.00
68719;DHT22;55696;52.138;5.444;2023-07-31T10:10:43;21.90;70.00
68719;DHT22;55696;52.138;5.444;2023-07-31T10:13:12;22.10;70.20
68719;DHT22;55696;52.138;5.444;2023-07-31T10:15:39;22.00;69.70
68719;DHT22;55696;52.138;5.444;2023-07-31T10:18:08;22.10;69.60
68719;DHT22;55696;52.138;5.444;2023-07-31T10:20:35;22.10;69.60
68719;DHT22;55696;52.138;5.444;2023-07-31T10:23:03;22.00;69.50
68719;DHT22;55696;52.138;5.444;2023-07-31T10:25:30;21.90;69.70
68719;DHT22;55696;52.138;5.444;2023-07-31T10:27:58;21.80;69.80
68719;DHT22;55696;52.138;5.444;2023-07-31T10:30:28;21.80;70.20
68719;DHT22;55696;52.138;5.444;2023-07-31T10:32:56;21.80;70.30
68719;DHT22;55696;52.138;5.444;2023-07-31T10:35:24;21.70;70.30
68719;DHT22;55696;52.138;5.444;2023-07-31T10:37:51;21.80;70.50
68719;DHT22;55696;52.138;5.444;2023-07-31T10:40:24;21.70;70.30
68719;DHT22;55696;52.138;5.444;2023-07-31T10:42:55;21.80;70.50
68719;DHT22;55696;52.138;5.444;2023-07-31T10:45:32;21.80;70.50
68719;DHT22;55696;52.138;5.444;2023-07-31T10:48:07;21.80;70.40
68719;DHT22;55696;52.138;5.444;2023-07-31T10:50:55;21.90;70.20
68719;DHT22;55696;52.138;5.444;2023-07-31T10:53:32;22.00;70.40
68719;DHT22;55696;52.138;5.444;2023-07-31T10:56:06;22.00;70.10
68719;DHT22;55696;52.138;5.444;2023-07-31T10:58:34;22.10;70.00
68719;DHT22;55696;52.138;5.444;2023-07-31T11:01:05;22.00;69.90
68719;DHT22;55696;52.138;5.444;2023-07-31T11:03:49;22.00;69.90
68719;DHT22;55696;52.138;5.444;2023-07-31T11:06:19;22.70;70.30
68719;DHT22;55696;52.138;5.444;2023-07-31T11:08:47;22.00;69.90
68719;DHT22;55696;52.138;5.444;2023-07-31T11:11:16;22.00;70.20
68719;DHT22;55696;52.138;5.444;2023-07-31T11:13:47;22.00;70.30
68719;DHT22;55696;52.138;5.444;2023-07-31T11:16:20;22.20;70.30
68719;DHT22;55696;52.138;5.444;2023-07-31T11:18:48;21.80;69.90
68719;DHT22;55696;52.138;5.444;2023-07-31T11:21:17;22.10;70.00
68719;DHT22;55696;52.138;5.444;2023-07-31T11:23:49;22.20;70.20
68719;DHT22;55696;52.138;5.444;2023-07-31T11:26:17;22.10;70.00
68719;DHT22;55696;52.138;5.444;2023-07-31T11:28:47;22.20;70.00
68719;DHT22;55696;52.138;5.444;2023-07-31T11:31:14;22.10;70.20
68719;DHT22;55696;52.138;5.444;2023-07-31T11:33:41;22.10;70.10
68719;DHT22;55696;52.138;5.444;2023-07-31T11:36:19;22.10;70.50
68719;DHT22;55696;52.138;5.444;2023-07-31T11:38:46;22.10;70.50
68719;DHT22;55696;52.138;5.444;2023-07-31T11:41:17;22.10;70.40
68719;DHT22;55696;52.138;5.444;2023-07-31T11:43:46;22.00;70.40
68719;DHT22;55696;52.138;5.444;2023-07-31T11:46:14;22.00;70.50
68719;DHT22;55696;52.138;5.444;2023-07-31T11:48:41;21.90;70.40
68719;DHT22;55696;52.138;5.444;2023-07-31T11:51:10;22.00;70.70
68719;DHT22;55696;52.138;5.444;2023-07-31T11:53:58;22.00;70.90
68719;DHT22;55696;52.138;5.444;2023-07-31T11:56:27;21.90;70.80
68719;DHT22;55696;52.138;5.444;2023-07-31T11:58:59;21.70;70.80
68719;DHT22;55696;52.138;5.444;2023-07-31T12:01:27;21.90;71.00
68719;DHT22;55696;52.138;5.444;2023-07-31T12:03:55;21.80;70.90
68719;DHT22;55696;52.138;5.444;2023-07-31T12:06:35;21.70;70.80
68719;DHT22;55696;52.138;5.444;2023-07-31T12:09:04;21.80;71.00
68719;DHT22;55696;52.138;5.444;2023-07-31T12:11:31;21.60;71.90
68719;DHT22;55696;52.138;5.444;2023-07-31T12:14:25;21.60;71.00
68719;DHT22;55696;52.138;5.444;2023-07-31T12:17:01;21.80;71.30
68719;DHT22;55696;52.138;5.444;2023-07-31T12:19:30;21.80;71.00
68719;DHT22;55696;52.138;5.444;2023-07-31T12:22:01;21.80;70.90
68719;DHT22;55696;52.138;5.444;2023-07-31T12:24:28;22.10;70.90
68719;DHT22;55696;52.138;5.444;2023-07-31T12:26:55;22.10;70.60
68719;DHT22;55696;52.138;5.444;2023-07-31T12:29:22;22.30;70.40
68719;DHT22;55696;52.138;5.444;2023-07-31T12:31:49;22.30;70.30
68719;DHT22;55696;52.138;5.444;2023-07-31T12:34:17;22.30;70.10
68719;DHT22;55696;52.138;5.444;2023-07-31T12:36:44;22.20;71.10
68719;DHT22;55696;52.138;5.444;2023-07-31T12:39:12;22.20;70.10
68719;DHT22;55696;52.138;5.444;2023-07-31T12:41:38;22.20;70.10
68719;DHT22;55696;52.138;5.444;2023-07-31T12:44:05;22.20;70.20
68719;DHT22;55696;52.138;5.444;2023-07-31T12:46:32;22.20;70.00
68719;DHT22;55696;52.138;5.444;2023-07-31T12:48:59;22.50;70.30
68719;DHT22;55696;52.138;5.444;2023-07-31T12:51:26;22.20;70.00
68719;DHT22;55696;52.138;5.444;2023-07-31T12:53:53;22.30;70.20
68719;DHT22;55696;52.138;5.444;2023-07-31T12:56:20;22.40;70.00
68719;DHT22;55696;52.138;5.444;2023-07-31T12:58:47;22.40;69.70
68719;DHT22;55696;52.138;5.444;2023-07-31T13:01:14;22.40;69.60
68719;DHT22;55696;52.138;5.444;2023-07-31T13:03:41;22.90;69.70
68719;DHT22;55696;52.138;5.444;2023-07-31T13:06:08;22.30;69.40
68719;DHT22;55696;52.138;5.444;2023-07-31T13:08:35;22.50;69.30
68719;DHT22;55696;52.138;5.444;2023-07-31T13:11:02;22.70;69.10
68719;DHT22;55696;52.138;5.444;2023-07-31T13:13:28;22.60;69.00
68719;DHT22;55696;52.138;5.444;2023-07-31T13:15:59;22.60;69.10
68719;DHT22;55696;52.138;5.444;2023-07-31T13:18:26;22.70;69.20
68719;DHT22;55696;52.138;5.444;2023-07-31T13:20:52;22.30;69.40
68719;DHT22;55696;52.138;5.444;2023-07-31T13:23:19;22.50;69.70
68719;DHT22;55696;52.138;5.444;2023-07-31T13:25:46;22.40;69.70
68719;DHT22;55696;52.138;5.444;2023-07-31T13:28:13;22.40;69.80
68719;DHT22;55696;52.138;5.444;2023-07-31T13:30:41;22.40;70.00
68719;DHT22;55696;52.138;5.444;2023-07-31T13:33:07;22.20;69.80
68719;DHT22;55696;52.138;5.444;2023-07-31T13:35:54;22.20;69.90
68719;DHT22;55696;52.138;5.444;2023-07-31T13:38:21;22.30;70.20
68719;DHT22;55696;52.138;5.444;2023-07-31T13:40:48;22.10;70.30
68719;DHT22;55696;52.138;5.444;2023-07-31T13:43:15;22.00;70.50
68719;DHT22;55696;52.138;5.444;2023-07-31T13:45:41;21.90;70.60
68719;DHT22;55696;52.138;5.444;2023-07-31T13:48:08;22.10;71.20
68719;DHT22;55696;52.138;5.444;2023-07-31T13:50:35;22.00;71.40
68719;DHT22;55696;52.138;5.444;2023-07-31T13:53:02;22.00;71.70
68719;DHT22;55696;52.138;5.444;2023-07-31T13:55:29;22.00;71.90
68719;DHT22;55696;52.138;5.444;2023-07-31T13:57:56;22.00;72.00
68719;DHT22;55696;52.138;5.444;2023-07-31T14:00:23;21.90;72.00
68719;DHT22;55696;52.138;5.444;2023-07-31T14:02:49;21.80;72.00
68719;DHT22;55696;52.138;5.444;2023-07-31T14:05:16;21.90;72.30
68719;DHT22;55696;52.138;5.444;2023-07-31T14:07:43;21.90;72.50
68719;DHT22;55696;52.138;5.444;2023-07-31T14:10:10;21.80;72.40
68719;DHT22;55696;52.138;5.444;2023-07-31T14:12:37;22.00;72.50
68719;DHT22;55696;52.138;5.444;2023-07-31T14:15:09;22.00;72.50
68719;DHT22;55696;52.138;5.444;2023-07-31T14:17:36;22.00;72.60
68719;DHT22;55696;52.138;5.444;2023-07-31T14:20:04;22.10;72.50
68719;DHT22;55696;52.138;5.444;2023-07-31T14:22:32;22.00;72.50
68719;DHT22;55696;52.138;5.444;2023-07-31T14:25:01;21.80;72.50
68719;DHT22;55696;52.138;5.444;2023-07-31T14:27:28;22.00;72.80
68719;DHT22;55696;52.138;5.444;2023-07-31T14:29:55;22.00;72.70
68719;DHT22;55696;52.138;5.444;2023-07-31T14:32:22;21.90;72.60
68719;DHT22;55696;52.138;5.444;2023-07-31T14:34:52;21.90;72.80
68719;DHT22;55696;52.138;5.444;2023-07-31T14:37:19;21.80;72.80
68719;DHT22;55696;52.138;5.444;2023-07-31T14:39:45;21.80;72.80
68719;DHT22;55696;52.138;5.444;2023-07-31T14:42:12;21.70;72.80
68719;DHT22;55696;52.138;5.444;2023-07-31T14:44:39;21.90;72.90
68719;DHT22;55696;52.138;5.444;2023-07-31T14:47:06;21.70;72.70
68719;DHT22;55696;52.138;5.444;2023-07-31T14:49:33;21.70;72.60
68719;DHT22;55696;52.138;5.444;2023-07-31T14:51:59;21.90;72.70
68719;DHT22;55696;52.138;5.444;2023-07-31T14:54:26;21.80;72.50
68719;DHT22;55696;52.138;5.444;2023-07-31T14:56:53;22.50;72.80
68719;DHT22;55696;52.138;5.444;2023-07-31T14:59:20;22.00;72.70
68719;DHT22;55696;52.138;5.444;2023-07-31T15:01:47;21.90;72.50
68719;DHT22;55696;52.138;5.444;2023-07-31T15:04:14;21.80;72.50
68719;DHT22;55696;52.138;5.444;2023-07-31T15:06:40;21.70;72.70
68719;DHT22;55696;52.138;5.444;2023-07-31T15:09:08;21.80;72.80
68719;DHT22;55696;52.138;5.444;2023-07-31T15:11:35;21.80;72.80
68719;DHT22;55696;52.138;5.444;2023-07-31T15:14:01;21.80;72.80
68719;DHT22;55696;52.138;5.444;2023-07-31T15:16:29;21.70;72.70
68719;DHT22;55696;52.138;5.444;2023-07-31T15:18:58;21.80;73.00
68719;DHT22;55696;52.138;5.444;2023-07-31T15:21:24;21.70;72.90
68719;DHT22;55696;52.138;5.444;2023-07-31T15:23:51;21.80;72.80
68719;DHT22;55696;52.138;5.444;2023-07-31T15:26:18;21.80;72.70
68719;DHT22;55696;52.138;5.444;2023-07-31T15:28:50;21.80;72.80
68719;DHT22;55696;52.138;5.444;2023-07-31T15:31:21;21.70;72.80
68719;DHT22;55696;52.138;5.444;2023-07-31T15:33:49;21.60;72.80
68719;DHT22;55696;52.138;5.444;2023-07-31T15:36:15;21.60;72.80
68719;DHT22;55696;52.138;5.444;2023-07-31T15:38:43;21.90;73.20